Aviation Digital Data Service (ADDS)

Output produced by TAFs form (0356 UTC 19 December 2014)
found at http://aviationweather.gov/adds/tafs/
 
KDMN 182335Z 1900/1924 28011KT P6SM VCSH FEW030 BKN040 BKN070 
     TEMPO 1900/1902 6SM -SHRA SCT025 
     FM190800 29006KT P6SM SCT040 
     FM191100 27003KT 5SM BR SCT001 SCT040 
     FM191500 30004KT P6SM FEW050